sensor_id;sensor_type;location;lat;lon;timestamp;P1;durP1;ratioP1;P2;durP2;ratioP2
65053;SDS011;51639;47.828;35.038;2022-07-10T00:01:34;5.17;;;4.53;;
65053;SDS011;51639;47.828;35.038;2022-07-10T00:16:36;6.40;;;4.87;;
65053;SDS011;51639;47.828;35.038;2022-07-10T00:31:40;11.90;;;5.43;;
65053;SDS011;51639;47.828;35.038;2022-07-10T00:46:42;8.77;;;5.88;;
65053;SDS011;51639;47.828;35.038;2022-07-10T01:01:44;14.50;;;6.70;;
65053;SDS011;51639;47.828;35.038;2022-07-10T01:16:46;10.43;;;5.63;;
65053;SDS011;51639;47.828;35.038;2022-07-10T01:31:49;6.22;;;5.63;;
65053;SDS011;51639;47.828;35.038;2022-07-10T01:46:57;7.85;;;6.07;;
65053;SDS011;51639;47.828;35.038;2022-07-10T02:01:59;10.57;;;5.72;;
65053;SDS011;51639;47.828;35.038;2022-07-10T02:17:02;7.77;;;5.93;;
65053;SDS011;51639;47.828;35.038;2022-07-10T02:47:07;11.32;;;6.45;;
65053;SDS011;51639;47.828;35.038;2022-07-10T03:02:09;11.45;;;6.78;;
65053;SDS011;51639;47.828;35.038;2022-07-10T03:17:11;8.87;;;5.83;;
65053;SDS011;51639;47.828;35.038;2022-07-10T03:32:14;12.65;;;6.57;;
65053;SDS011;51639;47.828;35.038;2022-07-10T04:02:17;9.25;;;6.35;;
65053;SDS011;51639;47.828;35.038;2022-07-10T04:17:19;7.77;;;5.97;;
65053;SDS011;51639;47.828;35.038;2022-07-10T04:32:23;7.23;;;5.93;;
65053;SDS011;51639;47.828;35.038;2022-07-10T04:47:25;9.38;;;6.93;;
65053;SDS011;51639;47.828;35.038;2022-07-10T05:02:27;13.50;;;6.80;;
65053;SDS011;51639;47.828;35.038;2022-07-10T05:17:29;11.82;;;7.22;;
65053;SDS011;51639;47.828;35.038;2022-07-10T05:32:43;12.38;;;8.70;;
65053;SDS011;51639;47.828;35.038;2022-07-10T05:47:45;11.85;;;7.07;;
65053;SDS011;51639;47.828;35.038;2022-07-10T06:02:47;9.55;;;6.10;;
65053;SDS011;51639;47.828;35.038;2022-07-10T06:17:53;10.73;;;6.22;;
65053;SDS011;51639;47.828;35.038;2022-07-10T06:32:59;12.63;;;7.70;;
65053;SDS011;51639;47.828;35.038;2022-07-10T06:48:01;10.55;;;6.60;;
65053;SDS011;51639;47.828;35.038;2022-07-10T07:03:04;10.60;;;6.50;;
65053;SDS011;51639;47.828;35.038;2022-07-10T07:18:07;14.55;;;8.68;;
65053;SDS011;51639;47.828;35.038;2022-07-10T07:33:09;23.20;;;11.63;;
65053;SDS011;51639;47.828;35.038;2022-07-10T07:48:11;30.65;;;14.02;;
65053;SDS011;51639;47.828;35.038;2022-07-10T08:03:13;27.60;;;12.82;;
65053;SDS011;51639;47.828;35.038;2022-07-10T08:18:16;19.83;;;11.10;;
65053;SDS011;51639;47.828;35.038;2022-07-10T08:33:18;15.88;;;10.77;;
65053;SDS011;51639;47.828;35.038;2022-07-10T08:48:21;11.05;;;7.30;;
65053;SDS011;51639;47.828;35.038;2022-07-10T09:03:25;12.15;;;6.88;;
65053;SDS011;51639;47.828;35.038;2022-07-10T09:18:27;7.35;;;5.40;;
65053;SDS011;51639;47.828;35.038;2022-07-10T09:33:30;10.70;;;6.80;;
65053;SDS011;51639;47.828;35.038;2022-07-10T09:48:34;10.63;;;6.35;;
65053;SDS011;51639;47.828;35.038;2022-07-10T10:03:38;10.05;;;6.57;;
65053;SDS011;51639;47.828;35.038;2022-07-10T10:18:42;14.43;;;7.35;;
65053;SDS011;51639;47.828;35.038;2022-07-10T10:34:04;11.98;;;6.88;;
65053;SDS011;51639;47.828;35.038;2022-07-10T10:49:06;11.15;;;6.13;;
65053;SDS011;51639;47.828;35.038;2022-07-10T11:19:12;11.90;;;9.20;;
65053;SDS011;51639;47.828;35.038;2022-07-10T11:34:14;13.88;;;10.95;;
65053;SDS011;51639;47.828;35.038;2022-07-10T11:49:16;16.20;;;12.57;;
65053;SDS011;51639;47.828;35.038;2022-07-10T12:04:19;22.33;;;13.15;;
65053;SDS011;51639;47.828;35.038;2022-07-10T12:19:27;27.95;;;19.73;;
65053;SDS011;51639;47.828;35.038;2022-07-10T12:34:41;23.52;;;11.95;;
65053;SDS011;51639;47.828;35.038;2022-07-10T12:49:51;19.40;;;10.23;;
65053;SDS011;51639;47.828;35.038;2022-07-10T13:04:57;16.20;;;11.23;;
65053;SDS011;51639;47.828;35.038;2022-07-10T13:20:00;22.48;;;12.38;;
65053;SDS011;51639;47.828;35.038;2022-07-10T13:35:02;16.42;;;11.13;;
65053;SDS011;51639;47.828;35.038;2022-07-10T13:50:04;16.77;;;12.10;;
65053;SDS011;51639;47.828;35.038;2022-07-10T14:05:06;20.58;;;11.23;;
65053;SDS011;51639;47.828;35.038;2022-07-10T14:20:11;15.60;;;10.98;;
65053;SDS011;51639;47.828;35.038;2022-07-10T14:35:14;17.52;;;11.95;;
65053;SDS011;51639;47.828;35.038;2022-07-10T14:50:16;20.55;;;12.95;;
65053;SDS011;51639;47.828;35.038;2022-07-10T15:05:18;23.25;;;12.18;;
65053;SDS011;51639;47.828;35.038;2022-07-10T15:20:20;18.80;;;10.50;;
65053;SDS011;51639;47.828;35.038;2022-07-10T15:35:23;13.43;;;6.90;;
65053;SDS011;51639;47.828;35.038;2022-07-10T15:50:25;15.40;;;8.55;;
65053;SDS011;51639;47.828;35.038;2022-07-10T16:05:34;10.75;;;6.95;;
65053;SDS011;51639;47.828;35.038;2022-07-10T16:20:37;13.05;;;6.57;;
65053;SDS011;51639;47.828;35.038;2022-07-10T16:35:39;13.87;;;6.70;;
65053;SDS011;51639;47.828;35.038;2022-07-10T16:50:41;14.23;;;7.65;;
65053;SDS011;51639;47.828;35.038;2022-07-10T17:05:43;10.07;;;7.20;;
65053;SDS011;51639;47.828;35.038;2022-07-10T17:20:46;15.27;;;6.93;;
65053;SDS011;51639;47.828;35.038;2022-07-10T17:35:48;12.20;;;7.43;;
65053;SDS011;51639;47.828;35.038;2022-07-10T17:50:49;10.68;;;7.65;;
65053;SDS011;51639;47.828;35.038;2022-07-10T18:05:52;10.40;;;7.17;;
65053;SDS011;51639;47.828;35.038;2022-07-10T18:20:54;12.37;;;8.13;;
65053;SDS011;51639;47.828;35.038;2022-07-10T18:35:59;11.88;;;7.82;;
65053;SDS011;51639;47.828;35.038;2022-07-10T18:51:01;24.30;;;13.50;;
65053;SDS011;51639;47.828;35.038;2022-07-10T19:06:03;10.18;;;7.97;;
65053;SDS011;51639;47.828;35.038;2022-07-10T19:21:05;13.73;;;8.30;;
65053;SDS011;51639;47.828;35.038;2022-07-10T19:36:11;14.55;;;8.98;;
65053;SDS011;51639;47.828;35.038;2022-07-10T19:51:13;16.15;;;8.38;;
65053;SDS011;51639;47.828;35.038;2022-07-10T20:06:15;12.93;;;8.10;;
65053;SDS011;51639;47.828;35.038;2022-07-10T20:21:18;11.90;;;7.00;;
65053;SDS011;51639;47.828;35.038;2022-07-10T20:36:20;8.40;;;5.13;;
65053;SDS011;51639;47.828;35.038;2022-07-10T20:51:40;9.32;;;5.72;;
65053;SDS011;51639;47.828;35.038;2022-07-10T21:06:42;7.82;;;4.68;;
65053;SDS011;51639;47.828;35.038;2022-07-10T21:21:45;23.67;;;13.27;;
65053;SDS011;51639;47.828;35.038;2022-07-10T21:36:46;12.18;;;5.82;;
65053;SDS011;51639;47.828;35.038;2022-07-10T21:51:49;10.23;;;5.63;;
65053;SDS011;51639;47.828;35.038;2022-07-10T22:06:51;8.35;;;5.75;;
65053;SDS011;51639;47.828;35.038;2022-07-10T22:36:56;12.82;;;7.55;;
65053;SDS011;51639;47.828;35.038;2022-07-10T22:51:58;13.82;;;9.00;;
65053;SDS011;51639;47.828;35.038;2022-07-10T23:07:00;11.48;;;7.75;;
65053;SDS011;51639;47.828;35.038;2022-07-10T23:22:02;16.52;;;7.95;;
65053;SDS011;51639;47.828;35.038;2022-07-10T23:37:06;10.53;;;7.97;;
65053;SDS011;51639;47.828;35.038;2022-07-10T23:52:08;13.23;;;8.33;;
